sensor_id;sensor_type;location;lat;lon;timestamp;temperature;humidity
35313;DHT22;21425;50.454;30.466;2022-09-09T00:01:50;9.50;99.90
35313;DHT22;21425;50.454;30.466;2022-09-09T00:04:34;9.40;99.90
35313;DHT22;21425;50.454;30.466;2022-09-09T00:07:18;9.60;99.90
35313;DHT22;21425;50.454;30.466;2022-09-09T00:10:01;9.90;99.90
35313;DHT22;21425;50.454;30.466;2022-09-09T00:12:36;9.50;99.90
35313;DHT22;21425;50.454;30.466;2022-09-09T00:15:14;9.40;99.90
35313;DHT22;21425;50.454;30.466;2022-09-09T00:18:12;9.80;99.90
35313;DHT22;21425;50.454;30.466;2022-09-09T00:20:55;9.60;99.90
35313;DHT22;21425;50.454;30.466;2022-09-09T00:23:32;10.40;99.90
35313;DHT22;21425;50.454;30.466;2022-09-09T00:29:14;9.50;99.90
35313;DHT22;21425;50.454;30.466;2022-09-09T00:31:42;11.30;99.90
35313;DHT22;21425;50.454;30.466;2022-09-09T00:34:23;10.20;99.90
35313;DHT22;21425;50.454;30.466;2022-09-09T00:36:53;12.40;99.90
35313;DHT22;21425;50.454;30.466;2022-09-09T00:39:36;8.90;99.90
35313;DHT22;21425;50.454;30.466;2022-09-09T00:42:10;9.10;99.90
35313;DHT22;21425;50.454;30.466;2022-09-09T00:44:52;9.00;99.90
35313;DHT22;21425;50.454;30.466;2022-09-09T00:47:32;10.50;99.90
35313;DHT22;21425;50.454;30.466;2022-09-09T00:50:13;9.40;99.90
35313;DHT22;21425;50.454;30.466;2022-09-09T00:52:45;8.90;99.90
35313;DHT22;21425;50.454;30.466;2022-09-09T00:57:41;8.80;99.90
35313;DHT22;21425;50.454;30.466;2022-09-09T01:00:24;8.90;99.90
35313;DHT22;21425;50.454;30.466;2022-09-09T01:05:35;8.60;99.90
35313;DHT22;21425;50.454;30.466;2022-09-09T01:10:53;9.00;99.90
35313;DHT22;21425;50.454;30.466;2022-09-09T01:13:25;8.70;99.90
35313;DHT22;21425;50.454;30.466;2022-09-09T01:15:53;8.30;99.90
35313;DHT22;21425;50.454;30.466;2022-09-09T01:18:27;7.80;99.90
35313;DHT22;21425;50.454;30.466;2022-09-09T01:24:05;8.30;99.90
35313;DHT22;21425;50.454;30.466;2022-09-09T01:26:42;8.40;99.90
35313;DHT22;21425;50.454;30.466;2022-09-09T01:29:16;8.50;99.90
35313;DHT22;21425;50.454;30.466;2022-09-09T01:34:15;8.30;99.90
35313;DHT22;21425;50.454;30.466;2022-09-09T01:36:53;10.40;99.90
35313;DHT22;21425;50.454;30.466;2022-09-09T01:39:20;9.30;99.90
35313;DHT22;21425;50.454;30.466;2022-09-09T01:41:46;9.30;99.90
35313;DHT22;21425;50.454;30.466;2022-09-09T01:44:12;8.40;99.90
35313;DHT22;21425;50.454;30.466;2022-09-09T01:46:38;9.10;99.90
35313;DHT22;21425;50.454;30.466;2022-09-09T01:49:06;10.20;99.90
35313;DHT22;21425;50.454;30.466;2022-09-09T01:51:33;8.40;99.90
35313;DHT22;21425;50.454;30.466;2022-09-09T01:53:59;8.30;99.90
35313;DHT22;21425;50.454;30.466;2022-09-09T02:01:58;8.10;99.90
35313;DHT22;21425;50.454;30.466;2022-09-09T02:04:42;8.20;99.90
35313;DHT22;21425;50.454;30.466;2022-09-09T02:07:38;8.10;99.90
35313;DHT22;21425;50.454;30.466;2022-09-09T02:12:49;10.10;99.90
35313;DHT22;21425;50.454;30.466;2022-09-09T02:15:35;9.40;99.90
35313;DHT22;21425;50.454;30.466;2022-09-09T02:18:07;9.30;99.90
35313;DHT22;21425;50.454;30.466;2022-09-09T02:20:36;8.10;99.90
35313;DHT22;21425;50.454;30.466;2022-09-09T02:23:04;8.40;99.90
35313;DHT22;21425;50.454;30.466;2022-09-09T02:25:30;8.10;99.90
35313;DHT22;21425;50.454;30.466;2022-09-09T02:27:56;8.10;99.90
35313;DHT22;21425;50.454;30.466;2022-09-09T02:30:28;9.00;99.90
35313;DHT22;21425;50.454;30.466;2022-09-09T02:32:56;8.10;99.90
35313;DHT22;21425;50.454;30.466;2022-09-09T02:35:24;8.20;99.90
35313;DHT22;21425;50.454;30.466;2022-09-09T02:37:53;8.20;99.90
35313;DHT22;21425;50.454;30.466;2022-09-09T02:42:48;8.20;99.90
35313;DHT22;21425;50.454;30.466;2022-09-09T02:45:17;8.10;99.90
35313;DHT22;21425;50.454;30.466;2022-09-09T02:48:14;10.00;99.90
35313;DHT22;21425;50.454;30.466;2022-09-09T02:53:24;8.10;99.90
35313;DHT22;21425;50.454;30.466;2022-09-09T02:55:58;8.00;99.90
35313;DHT22;21425;50.454;30.466;2022-09-09T02:58:25;7.90;99.90
35313;DHT22;21425;50.454;30.466;2022-09-09T03:00:51;10.30;99.90
35313;DHT22;21425;50.454;30.466;2022-09-09T03:03:18;8.00;99.90
35313;DHT22;21425;50.454;30.466;2022-09-09T03:05:45;8.70;99.90
35313;DHT22;21425;50.454;30.466;2022-09-09T03:08:12;8.20;99.90
35313;DHT22;21425;50.454;30.466;2022-09-09T03:10:38;8.00;99.90
35313;DHT22;21425;50.454;30.466;2022-09-09T03:13:04;8.70;99.90
35313;DHT22;21425;50.454;30.466;2022-09-09T03:15:31;8.00;99.90
35313;DHT22;21425;50.454;30.466;2022-09-09T03:17:58;7.90;99.90
35313;DHT22;21425;50.454;30.466;2022-09-09T03:20:25;8.00;99.90
35313;DHT22;21425;50.454;30.466;2022-09-09T03:22:52;7.90;99.90
35313;DHT22;21425;50.454;30.466;2022-09-09T03:25:18;8.00;99.90
35313;DHT22;21425;50.454;30.466;2022-09-09T03:27:43;7.90;99.90
35313;DHT22;21425;50.454;30.466;2022-09-09T03:30:09;7.90;99.90
35313;DHT22;21425;50.454;30.466;2022-09-09T03:32:36;7.80;99.90
35313;DHT22;21425;50.454;30.466;2022-09-09T03:35:02;7.80;99.90
35313;DHT22;21425;50.454;30.466;2022-09-09T03:37:28;7.80;99.90
35313;DHT22;21425;50.454;30.466;2022-09-09T03:39:54;8.30;99.90
35313;DHT22;21425;50.454;30.466;2022-09-09T03:42:20;7.90;99.90
35313;DHT22;21425;50.454;30.466;2022-09-09T03:44:46;7.90;99.90
35313;DHT22;21425;50.454;30.466;2022-09-09T03:47:18;8.00;99.90
35313;DHT22;21425;50.454;30.466;2022-09-09T03:52:10;8.00;99.90
35313;DHT22;21425;50.454;30.466;2022-09-09T03:54:35;8.10;99.90
35313;DHT22;21425;50.454;30.466;2022-09-09T03:57:02;9.60;99.90
35313;DHT22;21425;50.454;30.466;2022-09-09T03:59:28;8.10;99.90
35313;DHT22;21425;50.454;30.466;2022-09-09T04:01:53;8.10;99.90
35313;DHT22;21425;50.454;30.466;2022-09-09T04:04:20;8.10;99.90
35313;DHT22;21425;50.454;30.466;2022-09-09T04:06:46;9.60;99.90
35313;DHT22;21425;50.454;30.466;2022-09-09T04:09:13;8.10;99.90
35313;DHT22;21425;50.454;30.466;2022-09-09T04:11:39;9.30;99.90
35313;DHT22;21425;50.454;30.466;2022-09-09T04:14:05;8.20;99.90
35313;DHT22;21425;50.454;30.466;2022-09-09T04:16:34;6.90;99.90
35313;DHT22;21425;50.454;30.466;2022-09-09T04:19:03;9.00;99.90
35313;DHT22;21425;50.454;30.466;2022-09-09T04:21:30;8.20;99.90
35313;DHT22;21425;50.454;30.466;2022-09-09T04:23:55;11.20;99.90
35313;DHT22;21425;50.454;30.466;2022-09-09T04:26:22;8.30;99.90
35313;DHT22;21425;50.454;30.466;2022-09-09T04:28:47;8.30;99.90
35313;DHT22;21425;50.454;30.466;2022-09-09T04:31:19;9.10;99.90
35313;DHT22;21425;50.454;30.466;2022-09-09T04:33:45;9.40;99.90
35313;DHT22;21425;50.454;30.466;2022-09-09T04:36:12;8.80;99.90
35313;DHT22;21425;50.454;30.466;2022-09-09T04:38:38;8.10;99.90
35313;DHT22;21425;50.454;30.466;2022-09-09T04:41:05;11.10;99.90
35313;DHT22;21425;50.454;30.466;2022-09-09T04:43:30;9.00;99.90
35313;DHT22;21425;50.454;30.466;2022-09-09T04:45:56;8.60;99.90
35313;DHT22;21425;50.454;30.466;2022-09-09T04:48:22;8.60;99.90
35313;DHT22;21425;50.454;30.466;2022-09-09T04:51:05;8.80;99.90
35313;DHT22;21425;50.454;30.466;2022-09-09T04:53:32;8.90;99.90
35313;DHT22;21425;50.454;30.466;2022-09-09T04:56:15;10.00;99.90
35313;DHT22;21425;50.454;30.466;2022-09-09T04:58:42;11.10;99.90
35313;DHT22;21425;50.454;30.466;2022-09-09T05:01:16;9.50;99.90
35313;DHT22;21425;50.454;30.466;2022-09-09T05:03:43;10.50;99.90
35313;DHT22;21425;50.454;30.466;2022-09-09T05:06:13;10.00;99.90
35313;DHT22;21425;50.454;30.466;2022-09-09T05:08:40;10.10;99.90
35313;DHT22;21425;50.454;30.466;2022-09-09T05:11:23;10.80;99.90
35313;DHT22;21425;50.454;30.466;2022-09-09T05:13:50;10.10;99.90
35313;DHT22;21425;50.454;30.466;2022-09-09T05:16:16;10.80;99.90
35313;DHT22;21425;50.454;30.466;2022-09-09T05:18:42;10.30;99.90
35313;DHT22;21425;50.454;30.466;2022-09-09T05:21:09;10.40;99.90
35313;DHT22;21425;50.454;30.466;2022-09-09T05:23:35;9.70;99.90
35313;DHT22;21425;50.454;30.466;2022-09-09T05:26:01;10.70;99.90
35313;DHT22;21425;50.454;30.466;2022-09-09T05:28:28;10.60;99.90
35313;DHT22;21425;50.454;30.466;2022-09-09T05:31:01;10.70;99.90
35313;DHT22;21425;50.454;30.466;2022-09-09T05:33:30;10.80;99.90
35313;DHT22;21425;50.454;30.466;2022-09-09T05:36:01;10.80;99.90
35313;DHT22;21425;50.454;30.466;2022-09-09T05:38:28;10.60;99.90
35313;DHT22;21425;50.454;30.466;2022-09-09T05:40:55;11.00;99.90
35313;DHT22;21425;50.454;30.466;2022-09-09T05:43:22;10.90;99.90
35313;DHT22;21425;50.454;30.466;2022-09-09T05:45:48;9.60;99.90
35313;DHT22;21425;50.454;30.466;2022-09-09T05:48:23;10.10;99.90
35313;DHT22;21425;50.454;30.466;2022-09-09T05:50:52;11.10;99.90
35313;DHT22;21425;50.454;30.466;2022-09-09T05:53:19;11.10;99.90
35313;DHT22;21425;50.454;30.466;2022-09-09T05:55:45;9.80;99.90
35313;DHT22;21425;50.454;30.466;2022-09-09T06:00:37;11.30;99.90
35313;DHT22;21425;50.454;30.466;2022-09-09T06:03:03;10.70;99.90
35313;DHT22;21425;50.454;30.466;2022-09-09T06:05:29;11.30;99.90
35313;DHT22;21425;50.454;30.466;2022-09-09T06:10:22;11.60;99.90
35313;DHT22;21425;50.454;30.466;2022-09-09T06:15:14;11.90;99.90
35313;DHT22;21425;50.454;30.466;2022-09-09T06:17:39;11.80;99.90
35313;DHT22;21425;50.454;30.466;2022-09-09T06:20:07;14.10;99.90
35313;DHT22;21425;50.454;30.466;2022-09-09T06:22:34;11.40;99.90
35313;DHT22;21425;50.454;30.466;2022-09-09T06:25:00;11.90;99.90
35313;DHT22;21425;50.454;30.466;2022-09-09T06:27:27;12.80;99.90
35313;DHT22;21425;50.454;30.466;2022-09-09T06:29:54;12.70;99.90
35313;DHT22;21425;50.454;30.466;2022-09-09T06:32:19;12.20;99.90
35313;DHT22;21425;50.454;30.466;2022-09-09T06:34:45;13.10;99.90
35313;DHT22;21425;50.454;30.466;2022-09-09T06:37:10;13.20;99.90
35313;DHT22;21425;50.454;30.466;2022-09-09T06:39:36;12.60;99.90
35313;DHT22;21425;50.454;30.466;2022-09-09T06:42:02;12.60;99.90
35313;DHT22;21425;50.454;30.466;2022-09-09T06:44:27;12.80;99.90
35313;DHT22;21425;50.454;30.466;2022-09-09T06:46:53;12.70;99.90
35313;DHT22;21425;50.454;30.466;2022-09-09T06:51:45;13.30;99.90
35313;DHT22;21425;50.454;30.466;2022-09-09T06:54:12;12.40;99.10
35313;DHT22;21425;50.454;30.466;2022-09-09T06:56:39;13.60;99.70
35313;DHT22;21425;50.454;30.466;2022-09-09T06:59:09;12.40;97.50
35313;DHT22;21425;50.454;30.466;2022-09-09T07:01:40;12.60;97.30
35313;DHT22;21425;50.454;30.466;2022-09-09T07:04:06;13.70;97.90
35313;DHT22;21425;50.454;30.466;2022-09-09T07:06:36;16.10;97.80
35313;DHT22;21425;50.454;30.466;2022-09-09T07:09:05;13.90;96.60
35313;DHT22;21425;50.454;30.466;2022-09-09T07:11:33;14.00;96.00
35313;DHT22;21425;50.454;30.466;2022-09-09T07:14:00;14.60;95.00
35313;DHT22;21425;50.454;30.466;2022-09-09T07:16:26;14.50;94.90
35313;DHT22;21425;50.454;30.466;2022-09-09T07:18:57;14.40;94.40
35313;DHT22;21425;50.454;30.466;2022-09-09T07:21:23;16.00;95.20
35313;DHT22;21425;50.454;30.466;2022-09-09T07:23:49;15.90;93.40
35313;DHT22;21425;50.454;30.466;2022-09-09T07:26:17;14.50;93.40
35313;DHT22;21425;50.454;30.466;2022-09-09T07:28:45;14.40;92.50
35313;DHT22;21425;50.454;30.466;2022-09-09T07:31:21;14.30;90.80
35313;DHT22;21425;50.454;30.466;2022-09-09T07:33:47;14.80;91.10
35313;DHT22;21425;50.454;30.466;2022-09-09T07:36:16;14.80;89.30
35313;DHT22;21425;50.454;30.466;2022-09-09T07:38:47;14.20;88.10
35313;DHT22;21425;50.454;30.466;2022-09-09T07:41:16;14.80;87.80
35313;DHT22;21425;50.454;30.466;2022-09-09T07:43:44;14.60;88.30
35313;DHT22;21425;50.454;30.466;2022-09-09T07:46:11;16.20;86.30
35313;DHT22;21425;50.454;30.466;2022-09-09T07:48:38;15.00;86.40
35313;DHT22;21425;50.454;30.466;2022-09-09T07:51:09;15.40;83.90
35313;DHT22;21425;50.454;30.466;2022-09-09T07:53:40;15.80;82.70
35313;DHT22;21425;50.454;30.466;2022-09-09T07:56:08;15.50;82.80
35313;DHT22;21425;50.454;30.466;2022-09-09T07:58:38;15.10;82.30
35313;DHT22;21425;50.454;30.466;2022-09-09T08:01:09;15.80;81.00
35313;DHT22;21425;50.454;30.466;2022-09-09T08:03:35;13.70;79.00
35313;DHT22;21425;50.454;30.466;2022-09-09T08:06:03;14.90;79.60
35313;DHT22;21425;50.454;30.466;2022-09-09T08:08:29;14.90;80.00
35313;DHT22;21425;50.454;30.466;2022-09-09T08:11:05;14.80;79.60
35313;DHT22;21425;50.454;30.466;2022-09-09T08:13:33;15.30;79.80
35313;DHT22;21425;50.454;30.466;2022-09-09T08:16:14;15.80;79.20
35313;DHT22;21425;50.454;30.466;2022-09-09T08:18:40;15.30;80.20
35313;DHT22;21425;50.454;30.466;2022-09-09T08:21:23;15.10;77.80
35313;DHT22;21425;50.454;30.466;2022-09-09T08:23:51;15.50;78.70
35313;DHT22;21425;50.454;30.466;2022-09-09T08:26:23;15.60;74.40
35313;DHT22;21425;50.454;30.466;2022-09-09T08:28:54;15.10;71.50
35313;DHT22;21425;50.454;30.466;2022-09-09T08:31:23;15.90;71.00
35313;DHT22;21425;50.454;30.466;2022-09-09T08:33:49;17.00;68.20
35313;DHT22;21425;50.454;30.466;2022-09-09T08:36:20;16.30;68.40
35313;DHT22;21425;50.454;30.466;2022-09-09T08:38:51;16.30;68.30
35313;DHT22;21425;50.454;30.466;2022-09-09T08:41:40;15.90;66.60
35313;DHT22;21425;50.454;30.466;2022-09-09T08:49:50;16.40;64.20
35313;DHT22;21425;50.454;30.466;2022-09-09T08:57:39;16.40;63.80
35313;DHT22;21425;50.454;30.466;2022-09-09T09:00:07;17.30;63.50
35313;DHT22;21425;50.454;30.466;2022-09-09T09:03:00;18.50;62.90
35313;DHT22;21425;50.454;30.466;2022-09-09T09:06:04;17.70;60.70
35313;DHT22;21425;50.454;30.466;2022-09-09T09:08:43;16.30;59.30
35313;DHT22;21425;50.454;30.466;2022-09-09T09:11:11;18.10;60.90
35313;DHT22;21425;50.454;30.466;2022-09-09T09:14:11;16.80;58.70
35313;DHT22;21425;50.454;30.466;2022-09-09T09:16:45;17.00;59.50
35313;DHT22;21425;50.454;30.466;2022-09-09T09:19:15;17.40;57.90
35313;DHT22;21425;50.454;30.466;2022-09-09T09:21:44;16.20;58.00
35313;DHT22;21425;50.454;30.466;2022-09-09T09:24:20;16.60;57.60
35313;DHT22;21425;50.454;30.466;2022-09-09T09:26:48;17.10;57.80
35313;DHT22;21425;50.454;30.466;2022-09-09T09:29:17;18.30;58.00
35313;DHT22;21425;50.454;30.466;2022-09-09T09:31:51;17.60;56.10
35313;DHT22;21425;50.454;30.466;2022-09-09T09:34:17;17.20;54.90
35313;DHT22;21425;50.454;30.466;2022-09-09T09:36:44;17.30;55.60
35313;DHT22;21425;50.454;30.466;2022-09-09T09:39:23;17.50;54.50
35313;DHT22;21425;50.454;30.466;2022-09-09T09:41:49;17.10;53.60
35313;DHT22;21425;50.454;30.466;2022-09-09T09:44:30;18.90;54.00
35313;DHT22;21425;50.454;30.466;2022-09-09T09:49:38;18.00;52.10
35313;DHT22;21425;50.454;30.466;2022-09-09T09:52:04;17.50;52.00
35313;DHT22;21425;50.454;30.466;2022-09-09T09:54:39;17.70;52.60
35313;DHT22;21425;50.454;30.466;2022-09-09T09:57:11;18.00;52.20
35313;DHT22;21425;50.454;30.466;2022-09-09T09:59:38;18.00;51.00
35313;DHT22;21425;50.454;30.466;2022-09-09T10:02:22;18.80;50.90
35313;DHT22;21425;50.454;30.466;2022-09-09T10:05:04;18.10;51.20
35313;DHT22;21425;50.454;30.466;2022-09-09T10:07:30;18.30;50.50
35313;DHT22;21425;50.454;30.466;2022-09-09T10:09:58;18.10;50.60
35313;DHT22;21425;50.454;30.466;2022-09-09T10:12:34;18.40;50.30
35313;DHT22;21425;50.454;30.466;2022-09-09T10:32:06;19.30;47.50
35313;DHT22;21425;50.454;30.466;2022-09-09T10:40:20;19.60;46.60
35313;DHT22;21425;50.454;30.466;2022-09-09T10:42:52;19.20;46.90
35313;DHT22;21425;50.454;30.466;2022-09-09T10:45:22;20.50;46.30
35313;DHT22;21425;50.454;30.466;2022-09-09T10:48:02;20.20;46.50
35313;DHT22;21425;50.454;30.466;2022-09-09T10:50:35;20.50;45.80
35313;DHT22;21425;50.454;30.466;2022-09-09T10:53:27;18.70;44.10
35313;DHT22;21425;50.454;30.466;2022-09-09T10:56:04;20.00;45.00
35313;DHT22;21425;50.454;30.466;2022-09-09T10:58:48;20.30;45.00
35313;DHT22;21425;50.454;30.466;2022-09-09T11:01:24;19.40;43.90
35313;DHT22;21425;50.454;30.466;2022-09-09T11:04:16;19.30;43.50
35313;DHT22;21425;50.454;30.466;2022-09-09T11:06:47;18.60;42.00
35313;DHT22;21425;50.454;30.466;2022-09-09T11:09:20;18.80;41.30
35313;DHT22;21425;50.454;30.466;2022-09-09T11:11:55;19.10;41.60
35313;DHT22;21425;50.454;30.466;2022-09-09T11:14:29;19.10;41.40
35313;DHT22;21425;50.454;30.466;2022-09-09T11:17:00;20.00;40.30
35313;DHT22;21425;50.454;30.466;2022-09-09T11:19:45;19.50;40.40
35313;DHT22;21425;50.454;30.466;2022-09-09T11:22:27;19.30;41.20
35313;DHT22;21425;50.454;30.466;2022-09-09T11:25:09;20.30;41.90
35313;DHT22;21425;50.454;30.466;2022-09-09T11:36:33;19.30;40.00
35313;DHT22;21425;50.454;30.466;2022-09-09T11:44:39;19.60;40.50
35313;DHT22;21425;50.454;30.466;2022-09-09T11:49:44;19.60;40.60
35313;DHT22;21425;50.454;30.466;2022-09-09T11:52:37;19.50;39.80
35313;DHT22;21425;50.454;30.466;2022-09-09T11:55:25;19.50;40.30
35313;DHT22;21425;50.454;30.466;2022-09-09T12:00:46;19.70;40.10
35313;DHT22;21425;50.454;30.466;2022-09-09T12:03:47;20.60;40.70
35313;DHT22;21425;50.454;30.466;2022-09-09T12:06:32;19.20;39.70
35313;DHT22;21425;50.454;30.466;2022-09-09T12:09:19;20.70;40.80
35313;DHT22;21425;50.454;30.466;2022-09-09T12:11:46;20.50;40.70
35313;DHT22;21425;50.454;30.466;2022-09-09T12:14:35;19.30;40.30
35313;DHT22;21425;50.454;30.466;2022-09-09T12:17:23;19.40;41.00
35313;DHT22;21425;50.454;30.466;2022-09-09T12:20:19;19.10;41.00
35313;DHT22;21425;50.454;30.466;2022-09-09T12:33:17;18.90;41.00
35313;DHT22;21425;50.454;30.466;2022-09-09T12:35:47;18.80;41.90
35313;DHT22;21425;50.454;30.466;2022-09-09T12:38:41;19.00;42.70
35313;DHT22;21425;50.454;30.466;2022-09-09T12:41:06;18.30;43.10
35313;DHT22;21425;50.454;30.466;2022-09-09T12:43:32;18.80;43.90
35313;DHT22;21425;50.454;30.466;2022-09-09T12:46:08;19.80;44.60
35313;DHT22;21425;50.454;30.466;2022-09-09T12:48:40;18.60;43.80
35313;DHT22;21425;50.454;30.466;2022-09-09T12:51:17;18.60;44.30
35313;DHT22;21425;50.454;30.466;2022-09-09T12:53:43;18.60;45.00
35313;DHT22;21425;50.454;30.466;2022-09-09T12:56:20;19.00;44.60
35313;DHT22;21425;50.454;30.466;2022-09-09T12:58:48;18.90;44.50
35313;DHT22;21425;50.454;30.466;2022-09-09T13:01:25;19.20;44.30
35313;DHT22;21425;50.454;30.466;2022-09-09T13:03:51;18.50;44.40
35313;DHT22;21425;50.454;30.466;2022-09-09T13:06:26;19.80;45.20
35313;DHT22;21425;50.454;30.466;2022-09-09T13:08:53;18.90;45.40
35313;DHT22;21425;50.454;30.466;2022-09-09T13:11:29;18.40;45.30
35313;DHT22;21425;50.454;30.466;2022-09-09T13:13:57;18.10;45.30
35313;DHT22;21425;50.454;30.466;2022-09-09T13:19:02;18.00;45.20
35313;DHT22;21425;50.454;30.466;2022-09-09T13:21:37;18.70;45.20
35313;DHT22;21425;50.454;30.466;2022-09-09T13:24:05;18.20;45.40
35313;DHT22;21425;50.454;30.466;2022-09-09T13:26:33;17.70;45.80
35313;DHT22;21425;50.454;30.466;2022-09-09T13:29:29;18.00;46.50
35313;DHT22;21425;50.454;30.466;2022-09-09T13:32:06;16.90;46.10
35313;DHT22;21425;50.454;30.466;2022-09-09T13:34:34;17.90;47.20
35313;DHT22;21425;50.454;30.466;2022-09-09T13:37:20;16.50;46.80
35313;DHT22;21425;50.454;30.466;2022-09-09T13:39:51;17.30;47.40
35313;DHT22;21425;50.454;30.466;2022-09-09T13:42:26;16.80;47.10
35313;DHT22;21425;50.454;30.466;2022-09-09T13:44:52;17.20;48.30
35313;DHT22;21425;50.454;30.466;2022-09-09T13:47:19;17.00;48.20
35313;DHT22;21425;50.454;30.466;2022-09-09T13:49:45;16.30;48.00
35313;DHT22;21425;50.454;30.466;2022-09-09T13:52:12;17.00;48.00
35313;DHT22;21425;50.454;30.466;2022-09-09T13:54:39;17.20;47.90
35313;DHT22;21425;50.454;30.466;2022-09-09T14:01:57;16.90;48.00
35313;DHT22;21425;50.454;30.466;2022-09-09T14:04:23;17.00;48.10
35313;DHT22;21425;50.454;30.466;2022-09-09T14:06:50;15.60;47.30
35313;DHT22;21425;50.454;30.466;2022-09-09T14:09:17;16.90;48.00
35313;DHT22;21425;50.454;30.466;2022-09-09T14:11:44;16.00;47.80
35313;DHT22;21425;50.454;30.466;2022-09-09T14:14:10;16.40;48.20
35313;DHT22;21425;50.454;30.466;2022-09-09T14:16:36;16.50;49.00
35313;DHT22;21425;50.454;30.466;2022-09-09T14:19:03;17.10;49.20
35313;DHT22;21425;50.454;30.466;2022-09-09T14:23:54;16.70;48.60
35313;DHT22;21425;50.454;30.466;2022-09-09T14:26:23;16.70;49.30
35313;DHT22;21425;50.454;30.466;2022-09-09T14:28:49;16.50;49.30
35313;DHT22;21425;50.454;30.466;2022-09-09T14:31:15;16.50;49.10
35313;DHT22;21425;50.454;30.466;2022-09-09T14:33:43;15.60;47.90
35313;DHT22;21425;50.454;30.466;2022-09-09T14:36:09;16.30;48.90
35313;DHT22;21425;50.454;30.466;2022-09-09T14:38:36;16.20;48.90
35313;DHT22;21425;50.454;30.466;2022-09-09T14:41:15;16.70;49.60
35313;DHT22;21425;50.454;30.466;2022-09-09T14:43:45;16.30;49.60
35313;DHT22;21425;50.454;30.466;2022-09-09T14:46:16;15.90;48.00
35313;DHT22;21425;50.454;30.466;2022-09-09T14:48:42;16.80;48.30
35313;DHT22;21425;50.454;30.466;2022-09-09T14:51:17;16.60;48.10
35313;DHT22;21425;50.454;30.466;2022-09-09T14:53:44;16.30;48.70
35313;DHT22;21425;50.454;30.466;2022-09-09T14:56:16;16.90;48.40
35313;DHT22;21425;50.454;30.466;2022-09-09T14:58:42;16.60;49.00
35313;DHT22;21425;50.454;30.466;2022-09-09T15:01:13;17.10;48.70
35313;DHT22;21425;50.454;30.466;2022-09-09T15:03:41;16.10;48.90
35313;DHT22;21425;50.454;30.466;2022-09-09T15:06:14;16.10;49.10
35313;DHT22;21425;50.454;30.466;2022-09-09T15:08:44;15.50;48.20
35313;DHT22;21425;50.454;30.466;2022-09-09T15:11:10;14.80;48.10
35313;DHT22;21425;50.454;30.466;2022-09-09T15:13:38;16.00;49.40
35313;DHT22;21425;50.454;30.466;2022-09-09T15:16:13;17.20;49.50
35313;DHT22;21425;50.454;30.466;2022-09-09T15:18:39;16.10;49.60
35313;DHT22;21425;50.454;30.466;2022-09-09T15:21:16;17.40;49.60
35313;DHT22;21425;50.454;30.466;2022-09-09T15:23:43;16.00;49.60
35313;DHT22;21425;50.454;30.466;2022-09-09T15:26:09;16.00;49.20
35313;DHT22;21425;50.454;30.466;2022-09-09T15:28:37;16.00;49.30
35313;DHT22;21425;50.454;30.466;2022-09-09T15:31:14;16.50;50.20
35313;DHT22;21425;50.454;30.466;2022-09-09T15:33:49;15.60;49.50
35313;DHT22;21425;50.454;30.466;2022-09-09T15:36:18;15.90;49.70
35313;DHT22;21425;50.454;30.466;2022-09-09T15:38:44;15.90;50.00
35313;DHT22;21425;50.454;30.466;2022-09-09T15:41:11;16.40;50.40
35313;DHT22;21425;50.454;30.466;2022-09-09T15:48:56;15.80;50.90
35313;DHT22;21425;50.454;30.466;2022-09-09T15:51:23;15.70;49.90
35313;DHT22;21425;50.454;30.466;2022-09-09T15:53:57;15.80;50.70
35313;DHT22;21425;50.454;30.466;2022-09-09T15:56:24;15.80;50.70
35313;DHT22;21425;50.454;30.466;2022-09-09T15:58:50;16.60;51.40
35313;DHT22;21425;50.454;30.466;2022-09-09T16:03:45;14.90;50.30
35313;DHT22;21425;50.454;30.466;2022-09-09T16:06:13;14.90;51.10
35313;DHT22;21425;50.454;30.466;2022-09-09T16:08:41;15.70;52.20
35313;DHT22;21425;50.454;30.466;2022-09-09T16:11:10;15.00;51.90
35313;DHT22;21425;50.454;30.466;2022-09-09T16:13:37;16.00;52.00
35313;DHT22;21425;50.454;30.466;2022-09-09T16:18:38;15.70;52.50
35313;DHT22;21425;50.454;30.466;2022-09-09T16:21:05;15.50;52.80
35313;DHT22;21425;50.454;30.466;2022-09-09T16:23:40;15.90;52.70
35313;DHT22;21425;50.454;30.466;2022-09-09T16:26:06;15.40;53.30
35313;DHT22;21425;50.454;30.466;2022-09-09T16:28:31;16.00;54.00
35313;DHT22;21425;50.454;30.466;2022-09-09T16:30:57;15.90;54.50
35313;DHT22;21425;50.454;30.466;2022-09-09T16:33:24;15.40;55.10
35313;DHT22;21425;50.454;30.466;2022-09-09T16:35:51;15.40;55.70
35313;DHT22;21425;50.454;30.466;2022-09-09T16:38:16;15.20;56.40
35313;DHT22;21425;50.454;30.466;2022-09-09T16:40:42;15.90;57.30
35313;DHT22;21425;50.454;30.466;2022-09-09T16:43:08;16.20;58.40
35313;DHT22;21425;50.454;30.466;2022-09-09T16:45:44;15.90;59.70
35313;DHT22;21425;50.454;30.466;2022-09-09T16:48:10;15.00;59.90
35313;DHT22;21425;50.454;30.466;2022-09-09T16:50:36;15.90;61.00
35313;DHT22;21425;50.454;30.466;2022-09-09T16:53:02;15.20;60.70
35313;DHT22;21425;50.454;30.466;2022-09-09T16:55:40;15.10;61.40
35313;DHT22;21425;50.454;30.466;2022-09-09T16:58:07;15.00;62.10
35313;DHT22;21425;50.454;30.466;2022-09-09T17:00:34;14.90;62.20
35313;DHT22;21425;50.454;30.466;2022-09-09T17:03:00;13.90;60.20
35313;DHT22;21425;50.454;30.466;2022-09-09T17:05:25;14.60;61.40
35313;DHT22;21425;50.454;30.466;2022-09-09T17:07:51;14.70;62.40
35313;DHT22;21425;50.454;30.466;2022-09-09T17:10:17;14.70;61.70
35313;DHT22;21425;50.454;30.466;2022-09-09T17:12:43;14.00;60.60
35313;DHT22;21425;50.454;30.466;2022-09-09T17:15:08;14.50;61.00
35313;DHT22;21425;50.454;30.466;2022-09-09T17:17:35;14.80;60.80
35313;DHT22;21425;50.454;30.466;2022-09-09T17:20:01;14.70;61.80
35313;DHT22;21425;50.454;30.466;2022-09-09T17:22:27;14.60;61.00
35313;DHT22;21425;50.454;30.466;2022-09-09T17:24:54;14.90;61.20
35313;DHT22;21425;50.454;30.466;2022-09-09T17:27:20;14.10;59.40
35313;DHT22;21425;50.454;30.466;2022-09-09T17:29:45;13.70;59.30
35313;DHT22;21425;50.454;30.466;2022-09-09T17:32:11;14.70;60.50
35313;DHT22;21425;50.454;30.466;2022-09-09T17:34:37;14.80;60.50
35313;DHT22;21425;50.454;30.466;2022-09-09T17:37:03;14.70;60.30
35313;DHT22;21425;50.454;30.466;2022-09-09T17:39:31;16.10;60.00
35313;DHT22;21425;50.454;30.466;2022-09-09T17:41:57;15.80;60.70
35313;DHT22;21425;50.454;30.466;2022-09-09T17:44:22;13.80;58.60
35313;DHT22;21425;50.454;30.466;2022-09-09T17:46:48;14.70;59.80
35313;DHT22;21425;50.454;30.466;2022-09-09T17:49:16;14.90;59.90
35313;DHT22;21425;50.454;30.466;2022-09-09T17:51:45;14.90;59.50